sensor_id;sensor_type;location;lat;lon;timestamp;temperature;humidity
17956;DHT22;27666;51.498;11.966;2023-04-10T00:01:11;8.30;99.90
17956;DHT22;27666;51.498;11.966;2023-04-10T00:03:58;8.30;99.90
17956;DHT22;27666;51.498;11.966;2023-04-10T00:06:45;8.30;99.90
17956;DHT22;27666;51.498;11.966;2023-04-10T00:09:33;8.30;99.90
17956;DHT22;27666;51.498;11.966;2023-04-10T00:12:21;8.30;99.90
17956;DHT22;27666;51.498;11.966;2023-04-10T00:15:09;8.30;99.90
17956;DHT22;27666;51.498;11.966;2023-04-10T00:17:56;8.40;99.90
17956;DHT22;27666;51.498;11.966;2023-04-10T00:20:42;8.40;99.90
17956;DHT22;27666;51.498;11.966;2023-04-10T00:23:29;8.40;99.90
17956;DHT22;27666;51.498;11.966;2023-04-10T00:26:19;8.40;99.90
17956;DHT22;27666;51.498;11.966;2023-04-10T00:29:09;8.30;99.90
17956;DHT22;27666;51.498;11.966;2023-04-10T00:31:56;8.30;99.90
17956;DHT22;27666;51.498;11.966;2023-04-10T00:34:42;8.20;99.90
17956;DHT22;27666;51.498;11.966;2023-04-10T00:37:29;8.20;99.90
17956;DHT22;27666;51.498;11.966;2023-04-10T00:40:16;8.20;99.90
17956;DHT22;27666;51.498;11.966;2023-04-10T00:43:03;8.20;99.90
17956;DHT22;27666;51.498;11.966;2023-04-10T00:45:51;8.10;99.90
17956;DHT22;27666;51.498;11.966;2023-04-10T00:48:38;8.00;99.90
17956;DHT22;27666;51.498;11.966;2023-04-10T00:51:24;7.90;99.90
17956;DHT22;27666;51.498;11.966;2023-04-10T00:54:11;7.70;99.90
17956;DHT22;27666;51.498;11.966;2023-04-10T00:56:58;7.60;99.90
17956;DHT22;27666;51.498;11.966;2023-04-10T00:59:44;7.40;99.90
17956;DHT22;27666;51.498;11.966;2023-04-10T01:02:33;7.10;99.90
17956;DHT22;27666;51.498;11.966;2023-04-10T01:05:21;7.10;99.90
17956;DHT22;27666;51.498;11.966;2023-04-10T01:08:13;7.00;99.90
17956;DHT22;27666;51.498;11.966;2023-04-10T01:11:04;7.00;99.90
17956;DHT22;27666;51.498;11.966;2023-04-10T01:14:00;7.00;99.90
17956;DHT22;27666;51.498;11.966;2023-04-10T01:16:52;7.00;99.90
17956;DHT22;27666;51.498;11.966;2023-04-10T01:19:57;6.90;99.90
17956;DHT22;27666;51.498;11.966;2023-04-10T01:23:03;6.90;99.90
17956;DHT22;27666;51.498;11.966;2023-04-10T01:25:56;6.90;99.90
17956;DHT22;27666;51.498;11.966;2023-04-10T01:28:51;6.90;99.90
17956;DHT22;27666;51.498;11.966;2023-04-10T01:31:41;6.90;99.90
17956;DHT22;27666;51.498;11.966;2023-04-10T01:34:38;6.90;99.90
17956;DHT22;27666;51.498;11.966;2023-04-10T01:37:28;6.90;99.90
17956;DHT22;27666;51.498;11.966;2023-04-10T01:40:18;6.90;99.90
17956;DHT22;27666;51.498;11.966;2023-04-10T01:43:09;7.00;99.90
17956;DHT22;27666;51.498;11.966;2023-04-10T01:46:00;7.00;99.90
17956;DHT22;27666;51.498;11.966;2023-04-10T01:48:48;7.10;99.90
17956;DHT22;27666;51.498;11.966;2023-04-10T01:51:39;7.10;99.90
17956;DHT22;27666;51.498;11.966;2023-04-10T01:54:28;7.10;99.90
17956;DHT22;27666;51.498;11.966;2023-04-10T01:57:17;7.10;99.90
17956;DHT22;27666;51.498;11.966;2023-04-10T02:00:04;7.10;99.90
17956;DHT22;27666;51.498;11.966;2023-04-10T02:02:53;7.10;99.90
17956;DHT22;27666;51.498;11.966;2023-04-10T02:05:48;7.10;99.90
17956;DHT22;27666;51.498;11.966;2023-04-10T02:08:41;7.10;99.90
17956;DHT22;27666;51.498;11.966;2023-04-10T02:11:37;7.10;99.90
17956;DHT22;27666;51.498;11.966;2023-04-10T02:14:31;7.10;99.90
17956;DHT22;27666;51.498;11.966;2023-04-10T02:17:21;7.10;99.90
17956;DHT22;27666;51.498;11.966;2023-04-10T02:20:13;7.00;99.90
17956;DHT22;27666;51.498;11.966;2023-04-10T02:22:59;7.00;99.90
17956;DHT22;27666;51.498;11.966;2023-04-10T02:25:48;6.90;99.90
17956;DHT22;27666;51.498;11.966;2023-04-10T02:28:37;6.70;99.90
17956;DHT22;27666;51.498;11.966;2023-04-10T02:31:23;6.60;99.90
17956;DHT22;27666;51.498;11.966;2023-04-10T02:34:10;6.50;99.90
17956;DHT22;27666;51.498;11.966;2023-04-10T02:36:58;6.50;99.90
17956;DHT22;27666;51.498;11.966;2023-04-10T02:39:44;6.50;99.90
17956;DHT22;27666;51.498;11.966;2023-04-10T02:42:31;6.40;99.90
17956;DHT22;27666;51.498;11.966;2023-04-10T02:45:17;6.20;99.90
17956;DHT22;27666;51.498;11.966;2023-04-10T02:48:04;6.10;99.90
17956;DHT22;27666;51.498;11.966;2023-04-10T02:50:55;6.00;99.90
17956;DHT22;27666;51.498;11.966;2023-04-10T02:53:43;6.00;99.90
17956;DHT22;27666;51.498;11.966;2023-04-10T02:56:32;5.90;99.90
17956;DHT22;27666;51.498;11.966;2023-04-10T02:59:19;6.00;99.90
17956;DHT22;27666;51.498;11.966;2023-04-10T03:02:07;6.00;99.90
17956;DHT22;27666;51.498;11.966;2023-04-10T03:04:54;6.10;99.90
17956;DHT22;27666;51.498;11.966;2023-04-10T03:07:41;6.10;99.90
17956;DHT22;27666;51.498;11.966;2023-04-10T03:10:28;6.10;99.90
17956;DHT22;27666;51.498;11.966;2023-04-10T03:13:15;6.20;99.90
17956;DHT22;27666;51.498;11.966;2023-04-10T03:16:02;6.10;99.90
17956;DHT22;27666;51.498;11.966;2023-04-10T03:18:50;6.20;99.90
17956;DHT22;27666;51.498;11.966;2023-04-10T03:21:36;6.30;99.90
17956;DHT22;27666;51.498;11.966;2023-04-10T03:24:23;6.40;99.90
17956;DHT22;27666;51.498;11.966;2023-04-10T03:27:11;6.50;99.90
17956;DHT22;27666;51.498;11.966;2023-04-10T03:29:58;6.50;99.90
17956;DHT22;27666;51.498;11.966;2023-04-10T03:32:45;6.50;99.90
17956;DHT22;27666;51.498;11.966;2023-04-10T03:35:31;6.50;99.90
17956;DHT22;27666;51.498;11.966;2023-04-10T03:38:21;6.50;99.90
17956;DHT22;27666;51.498;11.966;2023-04-10T03:41:07;6.50;99.90
17956;DHT22;27666;51.498;11.966;2023-04-10T03:43:55;6.50;99.90
17956;DHT22;27666;51.498;11.966;2023-04-10T03:46:41;6.50;99.90
17956;DHT22;27666;51.498;11.966;2023-04-10T03:49:28;6.40;99.90
17956;DHT22;27666;51.498;11.966;2023-04-10T03:52:14;6.40;99.90
17956;DHT22;27666;51.498;11.966;2023-04-10T03:55:01;6.40;99.90
17956;DHT22;27666;51.498;11.966;2023-04-10T03:57:47;6.40;99.90
17956;DHT22;27666;51.498;11.966;2023-04-10T04:00:35;6.40;99.90
17956;DHT22;27666;51.498;11.966;2023-04-10T04:03:22;6.40;99.90
17956;DHT22;27666;51.498;11.966;2023-04-10T04:06:09;6.40;99.90
17956;DHT22;27666;51.498;11.966;2023-04-10T04:08:55;6.30;99.90
17956;DHT22;27666;51.498;11.966;2023-04-10T04:11:42;6.40;99.90
17956;DHT22;27666;51.498;11.966;2023-04-10T04:14:28;6.40;99.90
17956;DHT22;27666;51.498;11.966;2023-04-10T04:17:16;6.40;99.90
17956;DHT22;27666;51.498;11.966;2023-04-10T04:20:04;6.50;99.90
17956;DHT22;27666;51.498;11.966;2023-04-10T04:22:51;6.40;99.90
17956;DHT22;27666;51.498;11.966;2023-04-10T04:25:37;6.40;99.90
17956;DHT22;27666;51.498;11.966;2023-04-10T04:28:23;6.40;99.90
17956;DHT22;27666;51.498;11.966;2023-04-10T04:31:12;6.40;99.90
17956;DHT22;27666;51.498;11.966;2023-04-10T04:34:00;6.40;99.90
17956;DHT22;27666;51.498;11.966;2023-04-10T04:36:46;6.50;99.90
17956;DHT22;27666;51.498;11.966;2023-04-10T04:39:33;6.50;99.90
17956;DHT22;27666;51.498;11.966;2023-04-10T04:42:19;6.50;99.90
17956;DHT22;27666;51.498;11.966;2023-04-10T04:45:07;6.30;99.90
17956;DHT22;27666;51.498;11.966;2023-04-10T04:47:54;6.30;99.90
17956;DHT22;27666;51.498;11.966;2023-04-10T04:50:42;6.40;99.90
17956;DHT22;27666;51.498;11.966;2023-04-10T04:53:30;6.30;99.90
17956;DHT22;27666;51.498;11.966;2023-04-10T04:56:16;6.30;99.90
17956;DHT22;27666;51.498;11.966;2023-04-10T04:59:03;6.20;99.90
17956;DHT22;27666;51.498;11.966;2023-04-10T05:01:49;6.10;99.90
17956;DHT22;27666;51.498;11.966;2023-04-10T05:04:36;6.20;99.90
17956;DHT22;27666;51.498;11.966;2023-04-10T05:07:24;6.30;99.90
17956;DHT22;27666;51.498;11.966;2023-04-10T05:10:11;6.40;99.90
17956;DHT22;27666;51.498;11.966;2023-04-10T05:12:57;6.50;99.90
17956;DHT22;27666;51.498;11.966;2023-04-10T05:15:44;6.60;99.90
17956;DHT22;27666;51.498;11.966;2023-04-10T05:18:30;6.80;99.90
17956;DHT22;27666;51.498;11.966;2023-04-10T05:21:17;7.00;99.90
17956;DHT22;27666;51.498;11.966;2023-04-10T05:24:04;7.30;99.90
17956;DHT22;27666;51.498;11.966;2023-04-10T05:26:51;7.50;99.90
17956;DHT22;27666;51.498;11.966;2023-04-10T05:29:37;7.80;99.90
17956;DHT22;27666;51.498;11.966;2023-04-10T05:32:24;8.00;99.90
17956;DHT22;27666;51.498;11.966;2023-04-10T05:35:10;8.20;99.90
17956;DHT22;27666;51.498;11.966;2023-04-10T05:37:57;8.40;99.90
17956;DHT22;27666;51.498;11.966;2023-04-10T05:40:46;8.60;99.90
17956;DHT22;27666;51.498;11.966;2023-04-10T05:43:33;8.90;99.90
17956;DHT22;27666;51.498;11.966;2023-04-10T05:46:22;9.00;99.90
17956;DHT22;27666;51.498;11.966;2023-04-10T05:49:08;9.10;99.90
17956;DHT22;27666;51.498;11.966;2023-04-10T05:51:55;9.00;99.90
17956;DHT22;27666;51.498;11.966;2023-04-10T05:54:41;9.10;99.90
17956;DHT22;27666;51.498;11.966;2023-04-10T05:57:30;9.10;99.90
17956;DHT22;27666;51.498;11.966;2023-04-10T06:00:17;9.20;99.90
17956;DHT22;27666;51.498;11.966;2023-04-10T06:03:04;9.30;99.90
17956;DHT22;27666;51.498;11.966;2023-04-10T06:05:50;9.40;99.90
17956;DHT22;27666;51.498;11.966;2023-04-10T06:08:38;9.80;99.90
17956;DHT22;27666;51.498;11.966;2023-04-10T06:11:25;10.00;99.90
17956;DHT22;27666;51.498;11.966;2023-04-10T06:14:13;10.30;99.90
17956;DHT22;27666;51.498;11.966;2023-04-10T06:16:59;10.60;99.90
17956;DHT22;27666;51.498;11.966;2023-04-10T06:19:46;10.90;99.90
17956;DHT22;27666;51.498;11.966;2023-04-10T06:22:33;10.90;99.90
17956;DHT22;27666;51.498;11.966;2023-04-10T06:25:19;11.00;99.90
17956;DHT22;27666;51.498;11.966;2023-04-10T06:28:05;11.30;99.90
17956;DHT22;27666;51.498;11.966;2023-04-10T06:30:53;11.40;99.90
17956;DHT22;27666;51.498;11.966;2023-04-10T06:33:41;11.60;99.90
17956;DHT22;27666;51.498;11.966;2023-04-10T06:36:27;11.80;99.90
17956;DHT22;27666;51.498;11.966;2023-04-10T06:39:14;11.90;99.90
17956;DHT22;27666;51.498;11.966;2023-04-10T06:42:00;11.90;99.90
17956;DHT22;27666;51.498;11.966;2023-04-10T06:44:47;12.10;99.90
17956;DHT22;27666;51.498;11.966;2023-04-10T06:47:35;12.20;99.90
17956;DHT22;27666;51.498;11.966;2023-04-10T06:50:22;12.60;99.90
17956;DHT22;27666;51.498;11.966;2023-04-10T06:53:09;12.80;99.90
17956;DHT22;27666;51.498;11.966;2023-04-10T06:55:56;12.90;99.90
17956;DHT22;27666;51.498;11.966;2023-04-10T06:58:43;13.10;99.90
17956;DHT22;27666;51.498;11.966;2023-04-10T07:01:30;13.30;99.90
17956;DHT22;27666;51.498;11.966;2023-04-10T07:04:17;13.50;99.90
17956;DHT22;27666;51.498;11.966;2023-04-10T07:07:04;13.70;99.90
17956;DHT22;27666;51.498;11.966;2023-04-10T07:09:54;13.90;99.90
17956;DHT22;27666;51.498;11.966;2023-04-10T07:12:42;14.40;99.90
17956;DHT22;27666;51.498;11.966;2023-04-10T07:15:28;14.90;99.90
17956;DHT22;27666;51.498;11.966;2023-04-10T07:18:15;15.30;99.90
17956;DHT22;27666;51.498;11.966;2023-04-10T07:21:08;15.50;99.90
17956;DHT22;27666;51.498;11.966;2023-04-10T07:23:55;15.50;99.90
17956;DHT22;27666;51.498;11.966;2023-04-10T07:26:41;15.20;99.90
17956;DHT22;27666;51.498;11.966;2023-04-10T07:29:28;15.40;99.90
17956;DHT22;27666;51.498;11.966;2023-04-10T07:32:15;15.50;99.90
17956;DHT22;27666;51.498;11.966;2023-04-10T07:35:02;15.60;99.90
17956;DHT22;27666;51.498;11.966;2023-04-10T07:37:50;16.10;99.90
17956;DHT22;27666;51.498;11.966;2023-04-10T07:40:38;16.50;99.40
17956;DHT22;27666;51.498;11.966;2023-04-10T07:43:25;16.70;98.80
17956;DHT22;27666;51.498;11.966;2023-04-10T07:46:11;16.80;97.70
17956;DHT22;27666;51.498;11.966;2023-04-10T07:48:58;16.80;97.80
17956;DHT22;27666;51.498;11.966;2023-04-10T07:51:44;17.10;97.10
17956;DHT22;27666;51.498;11.966;2023-04-10T07:54:32;17.30;96.60
17956;DHT22;27666;51.498;11.966;2023-04-10T07:57:19;17.60;96.00
17956;DHT22;27666;51.498;11.966;2023-04-10T08:00:07;17.90;95.10
17956;DHT22;27666;51.498;11.966;2023-04-10T08:02:53;17.70;94.80
17956;DHT22;27666;51.498;11.966;2023-04-10T08:05:40;17.90;94.80
17956;DHT22;27666;51.498;11.966;2023-04-10T08:08:26;17.60;94.80
17956;DHT22;27666;51.498;11.966;2023-04-10T08:11:25;17.70;95.10
17956;DHT22;27666;51.498;11.966;2023-04-10T08:14:12;17.70;95.00
17956;DHT22;27666;51.498;11.966;2023-04-10T08:17:02;17.90;94.20
17956;DHT22;27666;51.498;11.966;2023-04-10T08:19:49;17.90;93.90
17956;DHT22;27666;51.498;11.966;2023-04-10T08:22:36;17.80;94.30
17956;DHT22;27666;51.498;11.966;2023-04-10T08:25:22;17.60;94.00
17956;DHT22;27666;51.498;11.966;2023-04-10T08:28:10;17.30;94.10
17956;DHT22;27666;51.498;11.966;2023-04-10T08:30:56;17.40;94.00
17956;DHT22;27666;51.498;11.966;2023-04-10T08:33:43;17.60;94.30
17956;DHT22;27666;51.498;11.966;2023-04-10T08:36:29;18.30;93.00
17956;DHT22;27666;51.498;11.966;2023-04-10T08:39:16;18.50;92.40
17956;DHT22;27666;51.498;11.966;2023-04-10T08:42:05;18.50;92.00
17956;DHT22;27666;51.498;11.966;2023-04-10T08:44:53;18.40;92.00
17956;DHT22;27666;51.498;11.966;2023-04-10T08:47:42;18.40;91.90
17956;DHT22;27666;51.498;11.966;2023-04-10T08:50:30;19.00;91.00
17956;DHT22;27666;51.498;11.966;2023-04-10T08:53:19;19.30;90.50
17956;DHT22;27666;51.498;11.966;2023-04-10T08:56:11;19.20;90.00
17956;DHT22;27666;51.498;11.966;2023-04-10T08:59:02;18.70;89.90
17956;DHT22;27666;51.498;11.966;2023-04-10T09:01:50;18.60;90.20
17956;DHT22;27666;51.498;11.966;2023-04-10T09:04:38;18.80;90.00
17956;DHT22;27666;51.498;11.966;2023-04-10T09:07:26;19.10;90.10
17956;DHT22;27666;51.498;11.966;2023-04-10T09:10:12;19.50;87.20
17956;DHT22;27666;51.498;11.966;2023-04-10T09:12:58;19.30;86.10
17956;DHT22;27666;51.498;11.966;2023-04-10T09:15:54;19.20;85.00
17956;DHT22;27666;51.498;11.966;2023-04-10T09:18:47;19.20;84.10
17956;DHT22;27666;51.498;11.966;2023-04-10T09:21:35;19.20;80.70
17956;DHT22;27666;51.498;11.966;2023-04-10T09:24:23;19.10;80.70
17956;DHT22;27666;51.498;11.966;2023-04-10T09:27:10;18.90;79.70
17956;DHT22;27666;51.498;11.966;2023-04-10T09:30:32;18.60;79.40
17956;DHT22;27666;51.498;11.966;2023-04-10T09:33:22;18.50;80.40
17956;DHT22;27666;51.498;11.966;2023-04-10T09:36:13;18.40;81.20
17956;DHT22;27666;51.498;11.966;2023-04-10T09:38:59;18.60;79.10
17956;DHT22;27666;51.498;11.966;2023-04-10T09:41:50;18.60;78.50
17956;DHT22;27666;51.498;11.966;2023-04-10T09:44:38;18.50;79.80
17956;DHT22;27666;51.498;11.966;2023-04-10T09:50:12;18.00;78.20
17956;DHT22;27666;51.498;11.966;2023-04-10T09:52:59;17.80;80.70
17956;DHT22;27666;51.498;11.966;2023-04-10T09:55:47;18.10;82.00
17956;DHT22;27666;51.498;11.966;2023-04-10T09:58:33;18.20;82.60
17956;DHT22;27666;51.498;11.966;2023-04-10T10:01:20;18.20;83.70
17956;DHT22;27666;51.498;11.966;2023-04-10T10:04:07;18.10;84.30
17956;DHT22;27666;51.498;11.966;2023-04-10T10:06:55;18.20;85.70
17956;DHT22;27666;51.498;11.966;2023-04-10T10:09:44;18.50;86.20
17956;DHT22;27666;51.498;11.966;2023-04-10T10:12:34;18.70;85.20
17956;DHT22;27666;51.498;11.966;2023-04-10T10:15:28;18.70;84.70
17956;DHT22;27666;51.498;11.966;2023-04-10T10:18:21;18.30;84.30
17956;DHT22;27666;51.498;11.966;2023-04-10T10:21:12;18.20;84.20
17956;DHT22;27666;51.498;11.966;2023-04-10T10:24:02;18.30;85.00
17956;DHT22;27666;51.498;11.966;2023-04-10T10:26:54;18.50;85.00
17956;DHT22;27666;51.498;11.966;2023-04-10T10:29:43;18.40;85.30
17956;DHT22;27666;51.498;11.966;2023-04-10T10:32:33;18.40;85.30
17956;DHT22;27666;51.498;11.966;2023-04-10T10:35:20;18.60;85.90
17956;DHT22;27666;51.498;11.966;2023-04-10T10:38:10;18.90;85.60
17956;DHT22;27666;51.498;11.966;2023-04-10T10:41:04;18.80;84.40
17956;DHT22;27666;51.498;11.966;2023-04-10T10:44:00;18.60;83.80
17956;DHT22;27666;51.498;11.966;2023-04-10T10:47:06;18.00;85.30
17956;DHT22;27666;51.498;11.966;2023-04-10T10:49:54;17.90;86.40
17956;DHT22;27666;51.498;11.966;2023-04-10T10:52:45;18.00;86.50
17956;DHT22;27666;51.498;11.966;2023-04-10T10:55:34;17.90;87.20
17956;DHT22;27666;51.498;11.966;2023-04-10T10:58:46;17.50;87.50
17956;DHT22;27666;51.498;11.966;2023-04-10T11:01:35;17.10;89.80
17956;DHT22;27666;51.498;11.966;2023-04-10T11:04:43;16.90;89.60
17956;DHT22;27666;51.498;11.966;2023-04-10T11:10:58;17.00;90.00
17956;DHT22;27666;51.498;11.966;2023-04-10T11:14:11;17.00;90.30
17956;DHT22;27666;51.498;11.966;2023-04-10T11:17:01;16.80;89.70
17956;DHT22;27666;51.498;11.966;2023-04-10T11:19:58;16.80;90.10
17956;DHT22;27666;51.498;11.966;2023-04-10T11:23:08;16.70;90.00
17956;DHT22;27666;51.498;11.966;2023-04-10T11:25:55;16.60;90.20
17956;DHT22;27666;51.498;11.966;2023-04-10T11:28:41;16.70;89.60
17956;DHT22;27666;51.498;11.966;2023-04-10T11:31:28;16.50;89.90
17956;DHT22;27666;51.498;11.966;2023-04-10T11:34:17;16.60;90.00
17956;DHT22;27666;51.498;11.966;2023-04-10T11:37:03;16.40;89.70
17956;DHT22;27666;51.498;11.966;2023-04-10T11:40:02;16.50;89.50
17956;DHT22;27666;51.498;11.966;2023-04-10T11:42:49;16.50;89.30
17956;DHT22;27666;51.498;11.966;2023-04-10T11:45:36;16.50;89.20
17956;DHT22;27666;51.498;11.966;2023-04-10T11:48:23;16.60;89.60
17956;DHT22;27666;51.498;11.966;2023-04-10T11:51:12;16.50;89.90
17956;DHT22;27666;51.498;11.966;2023-04-10T11:54:05;16.40;90.30
17956;DHT22;27666;51.498;11.966;2023-04-10T11:56:57;16.30;90.90
17956;DHT22;27666;51.498;11.966;2023-04-10T11:59:49;16.40;90.90
17956;DHT22;27666;51.498;11.966;2023-04-10T12:02:49;16.30;90.70
17956;DHT22;27666;51.498;11.966;2023-04-10T12:05:44;16.00;90.70
17956;DHT22;27666;51.498;11.966;2023-04-10T12:08:37;15.90;91.10
17956;DHT22;27666;51.498;11.966;2023-04-10T12:11:25;15.90;91.40
17956;DHT22;27666;51.498;11.966;2023-04-10T12:14:12;15.80;91.70
17956;DHT22;27666;51.498;11.966;2023-04-10T12:16:59;15.90;91.40
17956;DHT22;27666;51.498;11.966;2023-04-10T12:19:46;16.00;91.30
17956;DHT22;27666;51.498;11.966;2023-04-10T12:22:33;15.90;91.10
17956;DHT22;27666;51.498;11.966;2023-04-10T12:25:22;16.00;90.80
17956;DHT22;27666;51.498;11.966;2023-04-10T12:28:16;16.00;91.10
17956;DHT22;27666;51.498;11.966;2023-04-10T12:31:05;16.00;91.20
17956;DHT22;27666;51.498;11.966;2023-04-10T12:33:51;15.90;90.90
17956;DHT22;27666;51.498;11.966;2023-04-10T12:36:41;16.10;90.90
17956;DHT22;27666;51.498;11.966;2023-04-10T12:39:37;16.20;90.50
17956;DHT22;27666;51.498;11.966;2023-04-10T12:42:25;16.20;91.00
17956;DHT22;27666;51.498;11.966;2023-04-10T12:45:11;16.10;91.20
17956;DHT22;27666;51.498;11.966;2023-04-10T12:47:58;16.00;91.60
17956;DHT22;27666;51.498;11.966;2023-04-10T12:50:45;16.00;90.60
17956;DHT22;27666;51.498;11.966;2023-04-10T12:53:42;16.10;90.40
17956;DHT22;27666;51.498;11.966;2023-04-10T12:56:39;16.10;90.80
17956;DHT22;27666;51.498;11.966;2023-04-10T12:59:28;16.20;90.70
17956;DHT22;27666;51.498;11.966;2023-04-10T13:02:14;16.20;90.70
17956;DHT22;27666;51.498;11.966;2023-04-10T13:05:03;16.30;90.70
17956;DHT22;27666;51.498;11.966;2023-04-10T13:07:50;16.30;91.00
17956;DHT22;27666;51.498;11.966;2023-04-10T13:10:37;16.30;90.80
17956;DHT22;27666;51.498;11.966;2023-04-10T13:13:27;16.20;90.70
17956;DHT22;27666;51.498;11.966;2023-04-10T13:16:15;16.10;90.90
17956;DHT22;27666;51.498;11.966;2023-04-10T13:19:02;16.20;90.90
17956;DHT22;27666;51.498;11.966;2023-04-10T13:21:48;16.10;90.80
17956;DHT22;27666;51.498;11.966;2023-04-10T13:24:36;16.10;90.60
17956;DHT22;27666;51.498;11.966;2023-04-10T13:27:22;16.10;90.70
17956;DHT22;27666;51.498;11.966;2023-04-10T13:30:09;16.20;90.90
17956;DHT22;27666;51.498;11.966;2023-04-10T13:32:57;16.30;90.90
17956;DHT22;27666;51.498;11.966;2023-04-10T13:35:44;16.40;90.40
17956;DHT22;27666;51.498;11.966;2023-04-10T13:38:30;16.60;88.80
17956;DHT22;27666;51.498;11.966;2023-04-10T13:41:17;16.60;88.20
17956;DHT22;27666;51.498;11.966;2023-04-10T13:44:04;16.80;87.70
17956;DHT22;27666;51.498;11.966;2023-04-10T13:46:51;17.00;87.90
17956;DHT22;27666;51.498;11.966;2023-04-10T13:49:38;17.10;88.10
17956;DHT22;27666;51.498;11.966;2023-04-10T13:52:25;17.10;88.30
17956;DHT22;27666;51.498;11.966;2023-04-10T13:55:11;17.10;88.30
17956;DHT22;27666;51.498;11.966;2023-04-10T13:57:58;17.00;87.80
17956;DHT22;27666;51.498;11.966;2023-04-10T14:00:45;16.90;87.50
17956;DHT22;27666;51.498;11.966;2023-04-10T14:03:31;16.80;87.30
17956;DHT22;27666;51.498;11.966;2023-04-10T14:06:19;16.70;87.00
17956;DHT22;27666;51.498;11.966;2023-04-10T14:09:06;16.70;86.80
17956;DHT22;27666;51.498;11.966;2023-04-10T14:11:53;16.70;86.80
17956;DHT22;27666;51.498;11.966;2023-04-10T14:14:40;16.80;86.50
17956;DHT22;27666;51.498;11.966;2023-04-10T14:17:27;16.80;86.40
17956;DHT22;27666;51.498;11.966;2023-04-10T14:20:13;16.90;86.90
17956;DHT22;27666;51.498;11.966;2023-04-10T14:23:01;17.10;86.50
17956;DHT22;27666;51.498;11.966;2023-04-10T14:25:49;17.30;86.00
17956;DHT22;27666;51.498;11.966;2023-04-10T14:28:35;17.30;85.30
17956;DHT22;27666;51.498;11.966;2023-04-10T14:31:21;17.20;85.60
17956;DHT22;27666;51.498;11.966;2023-04-10T14:34:08;17.20;85.50
17956;DHT22;27666;51.498;11.966;2023-04-10T14:36:54;17.00;85.80
17956;DHT22;27666;51.498;11.966;2023-04-10T14:39:42;16.90;85.20
17956;DHT22;27666;51.498;11.966;2023-04-10T14:42:29;16.90;85.90
17956;DHT22;27666;51.498;11.966;2023-04-10T14:45:15;16.80;85.90
17956;DHT22;27666;51.498;11.966;2023-04-10T14:48:08;16.70;86.00
17956;DHT22;27666;51.498;11.966;2023-04-10T14:50:55;16.70;86.60
17956;DHT22;27666;51.498;11.966;2023-04-10T14:53:43;16.70;86.50
17956;DHT22;27666;51.498;11.966;2023-04-10T14:56:31;16.70;85.80
17956;DHT22;27666;51.498;11.966;2023-04-10T14:59:17;16.70;85.80
17956;DHT22;27666;51.498;11.966;2023-04-10T15:02:04;16.70;85.70
17956;DHT22;27666;51.498;11.966;2023-04-10T15:04:51;16.80;85.80
17956;DHT22;27666;51.498;11.966;2023-04-10T15:07:37;16.80;86.00
17956;DHT22;27666;51.498;11.966;2023-04-10T15:10:24;16.80;85.20
17956;DHT22;27666;51.498;11.966;2023-04-10T15:13:12;16.80;85.70
17956;DHT22;27666;51.498;11.966;2023-04-10T15:15:58;16.90;84.70
17956;DHT22;27666;51.498;11.966;2023-04-10T15:18:46;16.80;84.90
17956;DHT22;27666;51.498;11.966;2023-04-10T15:21:33;16.80;84.80
17956;DHT22;27666;51.498;11.966;2023-04-10T15:24:19;16.80;84.60
17956;DHT22;27666;51.498;11.966;2023-04-10T15:27:06;16.80;84.10
17956;DHT22;27666;51.498;11.966;2023-04-10T15:29:54;16.90;83.40
17956;DHT22;27666;51.498;11.966;2023-04-10T15:32:40;16.80;82.30
17956;DHT22;27666;51.498;11.966;2023-04-10T15:35:27;16.80;82.40
17956;DHT22;27666;51.498;11.966;2023-04-10T15:38:14;16.80;81.70
17956;DHT22;27666;51.498;11.966;2023-04-10T15:41:07;16.80;82.00
17956;DHT22;27666;51.498;11.966;2023-04-10T15:43:54;16.80;81.80
17956;DHT22;27666;51.498;11.966;2023-04-10T15:46:42;16.70;81.60
17956;DHT22;27666;51.498;11.966;2023-04-10T15:49:31;16.70;81.90
17956;DHT22;27666;51.498;11.966;2023-04-10T15:52:22;16.60;81.90
17956;DHT22;27666;51.498;11.966;2023-04-10T15:55:09;16.60;81.60
17956;DHT22;27666;51.498;11.966;2023-04-10T15:57:55;16.50;81.10
17956;DHT22;27666;51.498;11.966;2023-04-10T16:00:43;16.50;80.40
17956;DHT22;27666;51.498;11.966;2023-04-10T16:03:31;16.50;80.20
17956;DHT22;27666;51.498;11.966;2023-04-10T16:06:18;16.50;80.10
17956;DHT22;27666;51.498;11.966;2023-04-10T16:09:05;16.50;79.90
17956;DHT22;27666;51.498;11.966;2023-04-10T16:12:11;16.50;80.20
17956;DHT22;27666;51.498;11.966;2023-04-10T16:14:58;16.50;80.20
17956;DHT22;27666;51.498;11.966;2023-04-10T16:17:44;16.50;79.00
17956;DHT22;27666;51.498;11.966;2023-04-10T16:20:32;16.50;79.50
17956;DHT22;27666;51.498;11.966;2023-04-10T16:23:19;16.50;79.40
17956;DHT22;27666;51.498;11.966;2023-04-10T16:26:05;16.40;79.20
17956;DHT22;27666;51.498;11.966;2023-04-10T16:28:52;16.50;79.50
17956;DHT22;27666;51.498;11.966;2023-04-10T16:31:38;16.40;79.40
17956;DHT22;27666;51.498;11.966;2023-04-10T16:34:25;16.40;79.80
17956;DHT22;27666;51.498;11.966;2023-04-10T16:37:13;16.50;79.90
17956;DHT22;27666;51.498;11.966;2023-04-10T16:39:59;16.40;79.30
17956;DHT22;27666;51.498;11.966;2023-04-10T16:42:46;16.40;79.40
17956;DHT22;27666;51.498;11.966;2023-04-10T16:45:32;16.30;79.80
17956;DHT22;27666;51.498;11.966;2023-04-10T16:48:18;16.20;79.60
17956;DHT22;27666;51.498;11.966;2023-04-10T16:51:07;16.20;79.90
17956;DHT22;27666;51.498;11.966;2023-04-10T16:53:55;16.20;79.80
17956;DHT22;27666;51.498;11.966;2023-04-10T16:56:41;16.20;80.10
17956;DHT22;27666;51.498;11.966;2023-04-10T16:59:28;16.10;80.30
17956;DHT22;27666;51.498;11.966;2023-04-10T17:02:14;16.10;80.50
17956;DHT22;27666;51.498;11.966;2023-04-10T17:05:01;16.10;80.90
17956;DHT22;27666;51.498;11.966;2023-04-10T17:07:47;16.10;81.10
17956;DHT22;27666;51.498;11.966;2023-04-10T17:10:35;16.00;81.20
17956;DHT22;27666;51.498;11.966;2023-04-10T17:13:22;16.00;81.50
17956;DHT22;27666;51.498;11.966;2023-04-10T17:16:08;15.90;81.40
17956;DHT22;27666;51.498;11.966;2023-04-10T17:18:55;15.90;81.70
17956;DHT22;27666;51.498;11.966;2023-04-10T17:21:42;15.90;82.00
17956;DHT22;27666;51.498;11.966;2023-04-10T17:24:28;15.80;82.20
17956;DHT22;27666;51.498;11.966;2023-04-10T17:27:17;15.70;82.60
17956;DHT22;27666;51.498;11.966;2023-04-10T17:30:05;15.60;82.90
17956;DHT22;27666;51.498;11.966;2023-04-10T17:32:55;15.70;83.30
17956;DHT22;27666;51.498;11.966;2023-04-10T17:35:41;15.60;83.50
17956;DHT22;27666;51.498;11.966;2023-04-10T17:38:28;15.50;83.80